Time;durP1;ratioP1;P1;durP2;ratioP2;P2;SDS_P1;SDS_P2;PMS_P1;PMS_P2;Temp;Humidity;BMP_temperature;BMP_pressure;BME280_temperature;BME280_humidity;BME280_pressure;Samples;Min_cycle;Max_cycle;Signal;HPM_P1;HPM_P2
2021/08/08 00:01:12;;;;;;;12.10;11.18;;;14.70;90.40;;;;;;5048960;29;20084;-73
2021/08/08 00:03:44;;;;;;;12.10;11.10;;;14.60;90.30;;;;;;5049557;29;20052;-73
2021/08/08 00:06:16;;;;;;;12.63;11.73;;;14.70;90.60;;;;;;5047919;29;20079;-73
2021/08/08 00:08:48;;;;;;;12.13;11.23;;;14.70;90.10;;;;;;5048804;29;20045;-73
2021/08/08 00:11:20;;;;;;;12.20;11.27;;;14.70;90.00;;;;;;5047296;29;20048;-73
2021/08/08 00:13:52;;;;;;;12.90;11.90;;;14.60;89.70;;;;;;5052246;29;20116;-73
2021/08/08 00:16:26;;;;;;;12.73;11.80;;;14.70;89.90;;;;;;5053401;29;20129;-72
2021/08/08 00:18:58;;;;;;;12.52;11.63;;;14.70;89.80;;;;;;5052058;29;20099;-69
2021/08/08 00:21:30;;;;;;;12.23;11.40;;;14.70;89.60;;;;;;5050071;29;20587;-70
2021/08/08 00:24:02;;;;;;;13.00;11.90;;;14.70;89.70;;;;;;5047583;29;20044;-71
2021/08/08 00:26:34;;;;;;;12.50;11.60;;;14.70;89.90;;;;;;5049812;29;20590;-70
2021/08/08 00:29:07;;;;;;;12.25;11.35;;;14.70;89.90;;;;;;5049025;29;20076;-69
2021/08/08 00:31:40;;;;;;;12.35;11.55;;;14.70;90.20;;;;;;5051134;29;20077;-72
2021/08/08 00:34:12;;;;;;;12.18;11.27;;;14.70;90.10;;;;;;5038924;29;20060;-73
2021/08/08 00:36:44;;;;;;;12.88;11.98;;;14.70;90.40;;;;;;5043238;29;20036;-71
2021/08/08 00:39:20;;;;;;;12.30;11.50;;;14.80;90.90;;;;;;5047956;29;20056;-71
2021/08/08 00:41:54;;;;;;;12.35;11.55;;;14.70;90.80;;;;;;5023742;29;20097;-70
2021/08/08 00:44:26;;;;;;;13.00;12.00;;;14.60;90.90;;;;;;5041947;29;20445;-71
2021/08/08 00:46:58;;;;;;;12.43;11.43;;;14.70;90.90;;;;;;5038784;29;20120;-71
2021/08/08 00:49:33;;;;;;;12.80;11.90;;;14.60;91.40;;;;;;5047534;29;20053;-72
2021/08/08 00:52:07;;;;;;;11.80;11.00;;;14.60;91.50;;;;;;5033757;29;20045;-71
2021/08/08 00:54:42;;;;;;;12.90;12.00;;;14.60;91.50;;;;;;5048005;29;20052;-72
2021/08/08 00:57:14;;;;;;;13.30;12.40;;;14.50;91.20;;;;;;5030499;29;20104;-72
2021/08/08 00:59:47;;;;;;;13.73;12.73;;;14.50;91.30;;;;;;5019874;29;20067;-71
2021/08/08 01:02:21;;;;;;;14.10;13.05;;;14.50;91.20;;;;;;5024181;29;20049;-70
2021/08/08 01:05:05;;;;;;;13.38;12.48;;;14.50;91.30;;;;;;5049806;29;20052;-71
2021/08/08 01:07:50;;;;;;;14.23;13.23;;;14.50;91.30;;;;;;5019826;29;20161;-71
2021/08/08 01:10:24;;;;;;;14.07;13.10;;;14.50;91.20;;;;;;5015271;29;20096;-72
2021/08/08 01:12:57;;;;;;;13.70;12.70;;;14.50;91.20;;;;;;5042843;29;20105;-70
2021/08/08 01:15:30;;;;;;;13.80;12.90;;;14.60;91.20;;;;;;5038139;29;20554;-69
2021/08/08 01:18:02;;;;;;;13.88;12.88;;;14.60;91.60;;;;;;5040826;29;20044;-69
2021/08/08 01:20:37;;;;;;;14.10;13.10;;;14.60;90.90;;;;;;5030978;29;20045;-70
2021/08/08 01:23:13;;;;;;;14.23;13.13;;;14.60;90.60;;;;;;5031674;29;20048;-70
2021/08/08 01:25:46;;;;;;;13.95;12.95;;;14.70;91.20;;;;;;5045444;29;20492;-69
2021/08/08 01:28:20;;;;;;;13.85;12.95;;;14.60;90.90;;;;;;5034119;29;20057;-70
2021/08/08 01:30:52;;;;;;;14.07;13.00;;;14.60;90.70;;;;;;5032940;29;20056;-69
2021/08/08 01:33:25;;;;;;;13.80;12.80;;;14.70;90.40;;;;;;5046371;29;20816;-69
2021/08/08 01:36:07;;;;;;;14.40;13.40;;;14.70;91.00;;;;;;5031027;29;20072;-69
2021/08/08 01:38:51;;;;;;;14.73;13.63;;;14.70;90.90;;;;;;5034147;29;20057;-70
2021/08/08 01:41:26;;;;;;;14.27;13.27;;;14.70;90.90;;;;;;5049450;29;20119;-70
2021/08/08 01:44:05;;;;;;;13.77;12.77;;;14.70;91.10;;;;;;5045025;29;20123;-72
2021/08/08 01:46:44;;;;;;;13.90;12.90;;;14.70;90.80;;;;;;5035095;29;20044;-72
2021/08/08 01:49:24;;;;;;;13.57;12.63;;;14.70;91.10;;;;;;5032391;29;20132;-73
2021/08/08 01:51:57;;;;;;;14.05;13.05;;;14.60;91.00;;;;;;5048494;29;20519;-72
2021/08/08 01:54:33;;;;;;;13.82;12.82;;;14.50;91.00;;;;;;5033487;29;20057;-72
2021/08/08 01:57:12;;;;;;;13.88;12.88;;;14.50;91.10;;;;;;5035436;29;20560;-73
2021/08/08 01:59:46;;;;;;;14.35;13.35;;;14.50;91.20;;;;;;5045305;29;20052;-74
2021/08/08 02:02:18;;;;;;;13.88;12.95;;;14.40;91.40;;;;;;5045875;29;20049;-72
2021/08/08 02:05:00;;;;;;;13.77;12.88;;;14.40;91.60;;;;;;5029998;29;20201;-73
2021/08/08 02:07:33;;;;;;;14.40;13.40;;;14.40;91.40;;;;;;5045340;29;20051;-72
2021/08/08 02:10:06;;;;;;;14.48;13.48;;;14.40;91.50;;;;;;5039800;29;20523;-73
2021/08/08 02:12:38;;;;;;;13.82;12.82;;;14.50;91.30;;;;;;5045315;29;20108;-72
2021/08/08 02:15:10;;;;;;;14.40;13.40;;;14.50;91.50;;;;;;5046204;29;20527;-72
2021/08/08 02:17:50;;;;;;;;;;;14.50;91.70;;;;;;5039983;29;20070;-72
2021/08/08 02:20:25;;;;;;;13.75;12.60;;;14.50;91.40;;;;;;5031415;29;19934;-73
2021/08/08 02:23:03;;;;;;;13.60;12.60;;;14.50;91.30;;;;;;5046075;29;20188;-72
2021/08/08 02:25:39;;;;;;;14.52;13.50;;;14.50;91.30;;;;;;5047046;29;20350;-71
2021/08/08 02:28:20;;;;;;;14.52;13.52;;;14.50;91.50;;;;;;5048076;29;20554;-71
2021/08/08 02:30:53;;;;;;;14.93;13.90;;;14.50;91.30;;;;;;5042240;29;20052;-71
2021/08/08 02:33:30;;;;;;;14.48;13.48;;;14.50;91.50;;;;;;5043412;29;20457;-70
2021/08/08 02:36:04;;;;;;;14.00;13.00;;;14.40;92.20;;;;;;5038104;29;20063;-70
2021/08/08 02:38:41;;;;;;;14.75;13.68;;;14.30;92.30;;;;;;5051773;29;20128;-70
2021/08/08 02:41:13;;;;;;;14.13;13.02;;;14.30;92.20;;;;;;5051677;29;20044;-70
2021/08/08 02:43:47;;;;;;;14.32;13.32;;;14.20;92.10;;;;;;5035789;29;20052;-72
2021/08/08 02:46:19;;;;;;;14.38;13.38;;;14.30;92.20;;;;;;5036592;29;20128;-72
2021/08/08 02:48:51;;;;;;;14.75;13.65;;;14.30;92.00;;;;;;5052503;29;20139;-72
2021/08/08 02:51:27;;;;;;;14.80;13.77;;;14.30;91.70;;;;;;5032017;29;20045;-72
2021/08/08 02:54:00;;;;;;;14.32;13.32;;;14.30;91.60;;;;;;5039502;29;20053;-70
2021/08/08 02:56:32;;;;;;;14.60;13.50;;;14.30;91.60;;;;;;5040698;29;20052;-70
2021/08/08 02:59:03;;;;;;;13.60;12.50;;;14.30;91.40;;;;;;5033885;29;20049;-70
2021/08/08 03:01:35;;;;;;;13.40;12.48;;;14.30;91.20;;;;;;5042842;29;20053;-70
2021/08/08 03:04:07;;;;;;;13.35;12.45;;;14.30;91.10;;;;;;5036202;29;20120;-71
2021/08/08 03:06:46;;;;;;;13.88;12.60;;;14.40;90.90;;;;;;5041655;29;20794;-71
2021/08/08 03:09:22;;;;;;;124.53;21.38;;;14.40;90.70;;;;;;5050224;29;20055;-70
2021/08/08 03:11:54;;;;;;;13.98;12.98;;;14.40;90.60;;;;;;5037315;29;20051;-70
2021/08/08 03:14:27;;;;;;;13.82;12.82;;;14.50;90.50;;;;;;5032857;29;20147;-72
2021/08/08 03:16:59;;;;;;;14.27;13.27;;;14.50;91.40;;;;;;5050911;29;20372;-70
2021/08/08 03:19:31;;;;;;;14.25;13.25;;;14.50;90.80;;;;;;5048063;29;20053;-71
2021/08/08 03:22:04;;;;;;;14.18;13.18;;;14.50;90.50;;;;;;5033475;29;20051;-70
2021/08/08 03:24:36;;;;;;;14.10;13.05;;;14.50;90.60;;;;;;5039355;29;20060;-70
2021/08/08 03:27:09;;;;;;;13.30;12.40;;;14.50;90.30;;;;;;5034233;29;20067;-72
2021/08/08 03:29:46;;;;;;;13.75;12.65;;;14.60;90.20;;;;;;5041994;29;20057;-71
2021/08/08 03:32:18;;;;;;;13.80;12.80;;;14.60;90.00;;;;;;5034819;29;20044;-72
2021/08/08 03:34:51;;;;;;;14.18;13.18;;;14.60;89.90;;;;;;5011207;29;20049;-70
2021/08/08 03:37:23;;;;;;;14.23;13.13;;;14.60;90.30;;;;;;5048766;29;20076;-69
2021/08/08 03:39:55;;;;;;;14.45;13.45;;;14.60;90.20;;;;;;5034446;29;20049;-71
2021/08/08 03:42:27;;;;;;;14.57;13.27;;;14.70;90.00;;;;;;5046477;29;20068;-71
2021/08/08 03:45:01;;;;;;;14.63;13.63;;;14.70;90.80;;;;;;5035364;29;20118;-70
2021/08/08 03:47:35;;;;;;;14.02;13.02;;;14.60;91.60;;;;;;5034962;29;20127;-71
2021/08/08 03:50:10;;;;;;;14.15;13.15;;;14.50;91.30;;;;;;5035632;29;20065;-71
2021/08/08 03:52:42;;;;;;;13.63;12.63;;;14.50;91.20;;;;;;5047815;29;20142;-71
2021/08/08 03:55:14;;;;;;;14.45;13.45;;;14.50;91.00;;;;;;5049641;29;20061;-71
2021/08/08 03:57:46;;;;;;;13.00;12.10;;;14.50;90.90;;;;;;5036420;29;20076;-71
2021/08/08 04:00:25;;;;;;;14.02;12.93;;;14.60;90.70;;;;;;5049640;29;20049;-71
2021/08/08 04:02:58;;;;;;;14.07;13.07;;;14.50;90.60;;;;;;5049406;29;20137;-71
2021/08/08 04:05:30;;;;;;;14.18;13.07;;;14.50;90.60;;;;;;5038588;29;20100;-71
2021/08/08 04:08:02;;;;;;;14.15;13.15;;;14.50;90.40;;;;;;5039405;29;20472;-71
2021/08/08 04:10:34;;;;;;;14.85;13.60;;;14.50;90.80;;;;;;5046464;29;20526;-70
2021/08/08 04:13:06;;;;;;;14.65;13.55;;;14.50;90.80;;;;;;5040918;29;20052;-70
2021/08/08 04:15:38;;;;;;;14.70;13.60;;;14.50;90.70;;;;;;5036648;29;20052;-70
2021/08/08 04:18:12;;;;;;;14.35;13.35;;;14.40;90.60;;;;;;5041425;29;20147;-70
2021/08/08 04:20:44;;;;;;;14.75;13.65;;;14.40;90.50;;;;;;5035949;29;20049;-72
2021/08/08 04:23:17;;;;;;;14.90;13.80;;;14.40;90.40;;;;;;5040062;29;20057;-71
2021/08/08 04:25:51;;;;;;;14.32;13.32;;;14.40;90.30;;;;;;5049620;29;20798;-70
2021/08/08 04:28:23;;;;;;;14.15;12.98;;;14.40;90.30;;;;;;5030115;29;20049;-70
2021/08/08 04:30:55;;;;;;;14.52;13.35;;;14.50;90.20;;;;;;5042059;29;20040;-70
2021/08/08 04:33:27;;;;;;;14.57;13.20;;;14.40;91.00;;;;;;5032896;29;20096;-70
2021/08/08 04:35:59;;;;;;;14.27;13.27;;;14.40;90.70;;;;;;5031680;29;20048;-71
2021/08/08 04:38:31;;;;;;;14.02;13.02;;;14.40;90.70;;;;;;5048284;29;20048;-70
2021/08/08 04:41:04;;;;;;;14.27;13.07;;;14.30;90.60;;;;;;5036176;29;20059;-70
2021/08/08 04:43:37;;;;;;;14.07;13.07;;;14.30;90.60;;;;;;5038983;29;20048;-70
2021/08/08 04:46:09;;;;;;;14.90;13.70;;;14.20;90.50;;;;;;5049037;29;20044;-71
2021/08/08 04:48:41;;;;;;;14.18;13.18;;;14.20;90.50;;;;;;5047836;29;20056;-72
2021/08/08 04:51:13;;;;;;;14.27;13.25;;;14.20;90.90;;;;;;5044560;29;20626;-71
2021/08/08 04:53:45;;;;;;;14.20;13.20;;;14.20;90.50;;;;;;5048601;29;20037;-71
2021/08/08 04:56:17;;;;;;;14.38;13.30;;;14.20;90.50;;;;;;5049756;29;20512;-71
2021/08/08 04:58:49;;;;;;;13.73;12.73;;;14.20;90.50;;;;;;5030418;29;20052;-71
2021/08/08 05:01:21;;;;;;;13.95;13.05;;;14.20;90.60;;;;;;5032179;29;20529;-72
2021/08/08 05:03:54;;;;;;;13.85;12.85;;;14.20;90.20;;;;;;5029753;29;20766;-71
2021/08/08 05:06:26;;;;;;;14.52;13.52;;;14.20;90.70;;;;;;5022684;29;20041;-72
2021/08/08 05:08:58;;;;;;;14.20;13.20;;;14.20;90.50;;;;;;5027049;29;20143;-71
2021/08/08 05:11:31;;;;;;;13.75;12.77;;;14.20;90.80;;;;;;5045926;29;20055;-72
2021/08/08 05:14:03;;;;;;;14.02;13.02;;;14.20;90.70;;;;;;5032758;29;20051;-71
2021/08/08 05:16:40;;;;;;;13.75;12.75;;;14.30;90.70;;;;;;5040366;29;20185;-71
2021/08/08 05:19:12;;;;;;;14.48;13.48;;;14.30;90.80;;;;;;5046726;29;20651;-71
2021/08/08 05:21:44;;;;;;;13.90;12.90;;;14.30;91.10;;;;;;5046177;29;20136;-71
2021/08/08 05:24:18;;;;;;;14.38;13.20;;;14.30;91.30;;;;;;5046390;29;20052;-71
2021/08/08 05:26:50;;;;;;;14.73;13.60;;;14.30;91.10;;;;;;5032860;29;20195;-72
2021/08/08 05:29:23;;;;;;;14.27;13.27;;;14.30;91.60;;;;;;5037745;29;20045;-72
2021/08/08 05:31:55;;;;;;;14.00;12.93;;;14.20;91.30;;;;;;5046993;29;20040;-71
2021/08/08 05:34:27;;;;;;;14.45;13.35;;;14.20;91.20;;;;;;5039472;29;20053;-72
2021/08/08 05:36:59;;;;;;;14.60;13.60;;;14.20;91.30;;;;;;5030213;29;20076;-72
2021/08/08 05:39:35;;;;;;;13.80;12.80;;;14.20;91.50;;;;;;5048053;29;20073;-71
2021/08/08 05:42:07;;;;;;;14.88;13.77;;;14.20;91.40;;;;;;5048567;29;20542;-71
2021/08/08 05:44:39;;;;;;;13.98;12.98;;;14.20;91.40;;;;;;5047708;29;20048;-71
2021/08/08 05:47:13;;;;;;;13.77;12.68;;;14.30;91.30;;;;;;5037464;29;20546;-73
2021/08/08 05:49:45;;;;;;;13.50;12.50;;;14.20;91.20;;;;;;5046128;29;20172;-72
2021/08/08 05:52:17;;;;;;;14.23;13.23;;;14.20;91.30;;;;;;5040617;29;20040;-71
2021/08/08 05:54:49;;;;;;;14.40;13.15;;;14.20;91.40;;;;;;5037379;29;20056;-72
2021/08/08 05:57:21;;;;;;;14.20;13.20;;;14.20;91.70;;;;;;5003513;29;20064;-73
2021/08/08 05:59:53;;;;;;;14.60;13.60;;;14.20;91.50;;;;;;5045154;29;20041;-74
2021/08/08 06:02:26;;;;;;;13.77;12.77;;;14.30;91.60;;;;;;5052453;29;20137;-73
2021/08/08 06:04:58;;;;;;;14.02;13.02;;;14.30;91.50;;;;;;5024766;29;20055;-73
2021/08/08 06:07:30;;;;;;;14.63;13.43;;;14.30;91.20;;;;;;5052928;29;20049;-72
2021/08/08 06:10:03;;;;;;;15.15;14.05;;;14.40;91.60;;;;;;5033344;29;20040;-70
2021/08/08 06:12:35;;;;;;;14.88;13.77;;;14.40;90.50;;;;;;5051230;29;20049;-73
2021/08/08 06:15:07;;;;;;;14.60;13.50;;;14.40;90.90;;;;;;5050573;29;20435;-71
2021/08/08 06:17:39;;;;;;;14.68;13.45;;;14.40;90.80;;;;;;5050150;29;20045;-72
2021/08/08 06:20:12;;;;;;;13.73;12.73;;;14.50;90.80;;;;;;5051448;29;20044;-72
2021/08/08 06:22:47;;;;;;;13.80;12.70;;;14.50;90.30;;;;;;5049006;29;20077;-72
2021/08/08 06:25:19;;;;;;;14.15;13.15;;;14.50;90.70;;;;;;5048360;29;20120;-73
2021/08/08 06:27:51;;;;;;;13.48;12.57;;;14.50;90.40;;;;;;5026674;29;20072;-71
2021/08/08 06:30:24;;;;;;;14.00;13.00;;;14.60;90.30;;;;;;5035229;29;20645;-72
2021/08/08 06:32:55;;;;;;;13.93;12.90;;;14.60;90.40;;;;;;5035270;29;20049;-73
2021/08/08 06:35:28;;;;;;;14.13;13.13;;;14.70;90.90;;;;;;5037968;29;20049;-72
2021/08/08 06:38:00;;;;;;;14.40;13.40;;;14.70;91.30;;;;;;5039137;29;20051;-72
2021/08/08 06:40:32;;;;;;;14.07;12.98;;;14.80;90.90;;;;;;5038557;29;20052;-71
2021/08/08 06:43:04;;;;;;;14.65;13.55;;;14.80;90.40;;;;;;5035092;29;20172;-71
2021/08/08 06:45:43;;;;;;;14.45;13.45;;;14.80;90.60;;;;;;5053544;29;20048;-71
2021/08/08 06:48:15;;;;;;;14.77;13.77;;;14.80;91.10;;;;;;5041425;29;20529;-71
2021/08/08 06:50:48;;;;;;;14.45;13.35;;;14.80;90.60;;;;;;5036375;29;20429;-71
2021/08/08 06:53:21;;;;;;;13.77;12.88;;;14.80;90.60;;;;;;5050256;29;20667;-71
2021/08/08 06:55:53;;;;;;;14.48;13.38;;;14.90;90.50;;;;;;5031770;29;20778;-70
2021/08/08 06:58:25;;;;;;;15.07;14.00;;;14.90;90.70;;;;;;5050239;29;20148;-71
2021/08/08 07:00:57;;;;;;;14.88;13.73;;;15.00;90.30;;;;;;5051004;29;20129;-71
2021/08/08 07:03:29;;;;;;;15.63;14.38;;;15.10;90.60;;;;;;5050236;29;20470;-69
2021/08/08 07:06:01;;;;;;;14.50;13.40;;;15.20;91.00;;;;;;5049250;29;20036;-69
2021/08/08 07:08:33;;;;;;;14.48;13.32;;;15.30;90.60;;;;;;5034352;29;20045;-70
2021/08/08 07:11:05;;;;;;;14.68;13.68;;;15.30;90.90;;;;;;5048413;29;20073;-70
2021/08/08 07:13:39;;;;;;;15.43;14.23;;;15.50;90.90;;;;;;5035230;29;20053;-70
2021/08/08 07:16:11;;;;;;;15.00;13.98;;;15.50;90.10;;;;;;5032269;29;20128;-70
2021/08/08 07:18:43;;;;;;;15.60;14.50;;;15.60;90.00;;;;;;5036970;29;20056;-70
2021/08/08 07:21:15;;;;;;;14.40;13.25;;;15.70;89.50;;;;;;5036285;29;20127;-71
2021/08/08 07:24:03;;;;;;;14.45;13.35;;;15.70;89.00;;;;;;5045374;29;20045;-71
2021/08/08 07:26:36;;;;;;;14.43;13.43;;;15.70;89.70;;;;;;5032386;29;20067;-71
2021/08/08 07:29:08;;;;;;;14.50;13.50;;;15.90;89.40;;;;;;5048139;29;20049;-71
2021/08/08 07:31:58;;;;;;;15.00;13.85;;;15.90;88.60;;;;;;5037592;29;20527;-70
2021/08/08 07:34:30;;;;;;;15.23;14.07;;;16.10;88.60;;;;;;5031934;29;20105;-70
2021/08/08 07:37:02;;;;;;;14.65;13.57;;;16.10;89.50;;;;;;5033910;29;20055;-71
2021/08/08 07:39:36;;;;;;;15.45;14.25;;;16.20;88.20;;;;;;5048910;29;20049;-71
2021/08/08 07:42:08;;;;;;;15.75;14.52;;;16.20;89.00;;;;;;5047292;29;20557;-70
2021/08/08 07:44:41;;;;;;;14.82;13.82;;;16.20;87.70;;;;;;5046432;29;20065;-71
2021/08/08 07:47:16;;;;;;;15.57;14.48;;;16.20;87.10;;;;;;5041499;29;20812;-70
2021/08/08 07:49:50;;;;;;;15.18;13.90;;;16.30;88.50;;;;;;5035994;29;20068;-70
2021/08/08 07:52:22;;;;;;;15.30;14.20;;;16.30;88.30;;;;;;5047161;29;20041;-70
2021/08/08 07:54:56;;;;;;;15.20;14.10;;;16.30;88.50;;;;;;5023798;29;20117;-70
2021/08/08 07:57:29;;;;;;;14.98;13.88;;;16.40;87.80;;;;;;5036620;29;20728;-70
2021/08/08 08:00:07;;;;;;;14.52;13.52;;;16.40;88.00;;;;;;5038155;29;20057;-71
2021/08/08 08:02:48;;;;;;;14.35;13.20;;;16.50;87.10;;;;;;5048626;29;20052;-71
2021/08/08 08:05:24;;;;;;;14.65;13.57;;;16.50;86.90;;;;;;5034489;29;20049;-70
2021/08/08 08:07:57;;;;;;;14.73;13.73;;;16.50;86.10;;;;;;5042472;29;20052;-70
2021/08/08 08:10:31;;;;;;;14.80;13.70;;;16.50;86.00;;;;;;5047385;29;20140;-71
2021/08/08 08:13:04;;;;;;;14.70;13.60;;;16.60;86.00;;;;;;5049002;29;20048;-71
2021/08/08 08:15:36;;;;;;;14.90;13.90;;;16.50;83.20;;;;;;5040783;29;20080;-71
2021/08/08 08:18:08;;;;;;;14.50;13.30;;;16.60;86.30;;;;;;5033067;29;20060;-71
2021/08/08 08:20:42;;;;;;;15.00;13.90;;;16.70;85.50;;;;;;5025817;29;20052;-71
2021/08/08 08:23:14;;;;;;;14.52;13.52;;;16.60;83.10;;;;;;5049828;29;20495;-71
2021/08/08 08:25:46;;;;;;;14.98;13.88;;;16.60;85.20;;;;;;5048738;29;20136;-70
2021/08/08 08:28:18;;;;;;;14.63;13.52;;;16.60;82.60;;;;;;5048333;29;20073;-71
2021/08/08 08:30:50;;;;;;;14.70;13.60;;;16.60;84.40;;;;;;5049488;29;20060;-70
2021/08/08 08:33:23;;;;;;;15.35;14.07;;;16.60;84.80;;;;;;5049718;29;20468;-71
2021/08/08 08:35:55;;;;;;;15.02;13.73;;;16.60;85.30;;;;;;5036780;29;20044;-71
2021/08/08 08:38:27;;;;;;;14.60;13.50;;;16.70;85.30;;;;;;5047362;29;20479;-71
2021/08/08 08:41:03;;;;;;;15.00;13.90;;;16.70;85.90;;;;;;5048080;29;20052;-71
2021/08/08 08:43:36;;;;;;;14.48;13.48;;;16.70;83.70;;;;;;5031304;29;20053;-71
2021/08/08 08:46:09;;;;;;;14.45;13.45;;;16.70;84.10;;;;;;5029620;29;20416;-71
2021/08/08 08:48:43;;;;;;;14.63;13.60;;;16.70;83.70;;;;;;5049733;29;20040;-71
2021/08/08 08:51:17;;;;;;;14.75;13.60;;;16.80;83.30;;;;;;5028902;29;20048;-72
2021/08/08 08:53:49;;;;;;;14.85;13.65;;;16.80;84.40;;;;;;5027503;29;20091;-72
2021/08/08 08:56:21;;;;;;;14.25;13.25;;;16.80;83.90;;;;;;5036547;29;20865;-73
2021/08/08 08:58:54;;;;;;;13.82;12.73;;;16.80;83.50;;;;;;5036257;29;20053;-71
2021/08/08 09:01:26;;;;;;;13.88;12.88;;;16.80;84.00;;;;;;5034397;29;20503;-70
2021/08/08 09:03:59;;;;;;;14.25;13.25;;;16.90;84.60;;;;;;5029465;29;20702;-72
2021/08/08 09:06:33;;;;;;;13.35;12.45;;;16.90;83.60;;;;;;5030179;29;20053;-73
2021/08/08 09:09:05;;;;;;;14.07;13.07;;;17.00;83.10;;;;;;5045920;29;20582;-72
2021/08/08 09:11:43;;;;;;;14.00;13.00;;;17.10;83.00;;;;;;5040344;29;20052;-73
2021/08/08 09:14:21;;;;;;;13.95;12.75;;;17.10;80.50;;;;;;5036174;29;20426;-74
2021/08/08 09:16:55;;;;;;;14.10;13.00;;;17.10;79.40;;;;;;5034023;29;20499;-72
2021/08/08 09:19:36;;;;;;;13.82;12.80;;;17.00;78.70;;;;;;5040497;29;20049;-73
2021/08/08 09:22:22;;;;;;;13.27;12.27;;;17.00;81.70;;;;;;5022829;29;20051;-72
2021/08/08 09:24:54;;;;;;;13.45;12.55;;;17.10;81.90;;;;;;5046770;29;20041;-73
2021/08/08 09:27:35;;;;;;;13.98;12.88;;;17.10;82.10;;;;;;5050559;29;20132;-72
2021/08/08 09:30:19;;;;;;;13.88;12.75;;;17.10;82.80;;;;;;5046972;29;20095;-74
2021/08/08 09:33:03;;;;;;;14.15;13.05;;;17.20;81.00;;;;;;5045695;29;20559;-72
2021/08/08 09:35:40;;;;;;;13.23;12.32;;;17.20;81.10;;;;;;5047591;29;20049;-72
2021/08/08 09:38:12;;;;;;;13.30;12.20;;;17.20;81.80;;;;;;5047797;29;20563;-73
2021/08/08 09:40:59;;;;;;;14.10;12.80;;;17.30;80.30;;;;;;5045863;29;20094;-73
2021/08/08 09:43:31;;;;;;;13.90;12.90;;;17.40;81.40;;;;;;5047307;29;20049;-73
2021/08/08 09:46:03;;;;;;;14.07;12.98;;;17.40;81.30;;;;;;5045454;29;20040;-73
2021/08/08 09:48:37;;;;;;;14.50;13.40;;;17.50;81.30;;;;;;5050283;29;20075;-72
2021/08/08 09:51:10;;;;;;;14.20;13.10;;;17.50;81.40;;;;;;5048258;29;20045;-72
2021/08/08 09:53:42;;;;;;;14.10;13.05;;;17.50;79.60;;;;;;5034118;29;20056;-75
2021/08/08 09:59:08;;;;;;;13.88;12.63;;;17.60;79.90;;;;;;5285140;23;20053;-72
2021/08/08 10:01:41;;;;;;;14.75;13.60;;;17.60;78.60;;;;;;5053407;29;20072;-71
2021/08/08 10:04:13;;;;;;;14.20;13.00;;;17.60;77.90;;;;;;5054136;29;20072;-71
2021/08/08 10:06:45;;;;;;;15.32;14.02;;;17.70;75.80;;;;;;5052588;29;20139;-72
2021/08/08 10:09:17;;;;;;;14.50;13.40;;;17.80;77.60;;;;;;5054482;29;20120;-72
2021/08/08 10:11:51;;;;;;;14.93;13.60;;;17.80;75.10;;;;;;5054635;29;20168;-71
2021/08/08 10:14:23;;;;;;;14.85;13.65;;;17.90;77.10;;;;;;5050069;29;20048;-71
2021/08/08 10:16:56;;;;;;;15.40;14.02;;;17.90;76.50;;;;;;5054778;29;20045;-70
2021/08/08 10:19:28;;;;;;;14.27;13.07;;;17.90;76.80;;;;;;5046404;29;20104;-71
2021/08/08 10:22:00;;;;;;;14.05;12.85;;;17.90;76.00;;;;;;5053874;29;20140;-71
2021/08/08 10:24:32;;;;;;;14.70;13.35;;;17.80;76.40;;;;;;5038554;29;20108;-71
2021/08/08 10:27:04;;;;;;;14.20;13.00;;;17.70;76.40;;;;;;5054674;29;20920;-71
2021/08/08 10:29:36;;;;;;;14.45;13.25;;;17.60;76.10;;;;;;5053887;29;20422;-72
2021/08/08 10:32:08;;;;;;;14.25;12.95;;;17.50;76.90;;;;;;5037863;29;20581;-72
2021/08/08 10:34:40;;;;;;;13.93;12.80;;;17.40;76.10;;;;;;5056615;29;20104;-72
2021/08/08 10:37:14;;;;;;;13.40;12.40;;;17.30;77.70;;;;;;5053141;29;20124;-73
2021/08/08 10:39:46;;;;;;;14.07;13.05;;;17.30;78.40;;;;;;5040375;29;20048;-72
2021/08/08 10:42:21;;;;;;;14.27;13.07;;;17.30;78.30;;;;;;5057066;29;20044;-71
2021/08/08 10:44:54;;;;;;;13.15;12.15;;;17.30;78.80;;;;;;5053160;29;20061;-73
2021/08/08 10:47:29;;;;;;;13.32;12.32;;;17.40;78.90;;;;;;5038928;29;20048;-73
2021/08/08 10:50:12;;;;;;;14.18;13.07;;;17.40;79.00;;;;;;5061074;29;20048;-73
2021/08/08 10:52:45;;;;;;;14.75;13.52;;;17.40;79.50;;;;;;5058134;29;20048;-72
2021/08/08 10:55:23;;;;;;;13.90;12.65;;;17.50;79.10;;;;;;5058960;29;20451;-74
2021/08/08 10:57:56;;;;;;;13.77;12.77;;;17.60;78.90;;;;;;5061530;29;20079;-72
2021/08/08 11:00:35;;;;;;;14.55;13.35;;;17.80;78.30;;;;;;5058186;29;20052;-71
2021/08/08 11:03:15;;;;;;;21.33;19.30;;;18.00;78.40;;;;;;5056961;29;20758;-71
2021/08/08 11:05:47;;;;;;;14.57;13.48;;;18.20;79.00;;;;;;5056783;29;20116;-73
2021/08/08 11:08:23;;;;;;;14.70;13.60;;;18.30;77.40;;;;;;5055204;29;20044;-72
2021/08/08 11:10:55;;;;;;;14.77;13.63;;;18.40;77.60;;;;;;5057421;29;20041;-72
2021/08/08 11:13:27;;;;;;;20.20;14.77;;;18.40;77.30;;;;;;5055856;29;20049;-71
2021/08/08 11:15:59;;;;;;;14.55;13.50;;;18.50;75.90;;;;;;5058523;29;20108;-72
2021/08/08 11:18:31;;;;;;;14.85;13.43;;;18.50;74.90;;;;;;5059319;29;20064;-72
2021/08/08 11:21:12;;;;;;;15.52;14.10;;;18.70;75.10;;;;;;5058479;29;20093;-73
2021/08/08 11:23:44;;;;;;;14.80;13.80;;;19.00;74.60;;;;;;5056121;29;20140;-72
2021/08/08 11:26:17;;;;;;;16.17;14.65;;;19.00;74.20;;;;;;5056549;29;20053;-73
2021/08/08 11:28:51;;;;;;;16.25;15.05;;;19.10;73.50;;;;;;5056677;29;20045;-73
2021/08/08 11:31:29;;;;;;;15.40;14.20;;;19.10;74.40;;;;;;5057002;29;20128;-72
2021/08/08 11:34:03;;;;;;;15.82;14.52;;;19.00;72.00;;;;;;5060160;29;20059;-72
2021/08/08 11:36:36;;;;;;;15.25;14.05;;;19.10;72.60;;;;;;5057873;29;20120;-74
2021/08/08 11:39:12;;;;;;;15.38;14.13;;;19.00;71.60;;;;;;5055575;29;20132;-73
2021/08/08 11:41:45;;;;;;;15.80;14.32;;;19.00;73.40;;;;;;5052550;29;20072;-73
2021/08/08 11:44:17;;;;;;;14.88;13.68;;;19.00;73.20;;;;;;5055369;29;20124;-74
2021/08/08 11:47:05;;;;;;;15.13;14.00;;;19.10;73.50;;;;;;5054684;29;20844;-75
2021/08/08 11:49:43;;;;;;;15.80;14.60;;;19.30;73.10;;;;;;5056960;29;20123;-73
2021/08/08 11:52:17;;;;;;;14.77;13.50;;;19.30;71.40;;;;;;5054801;29;20131;-75
2021/08/08 11:55:05;;;;;;;15.27;14.10;;;19.40;72.10;;;;;;5054458;29;20057;-73
2021/08/08 11:57:37;;;;;;;15.43;14.18;;;19.40;70.80;;;;;;5056273;29;20060;-73
2021/08/08 12:00:09;;;;;;;14.50;13.48;;;19.40;71.60;;;;;;5056870;29;20594;-73
2021/08/08 12:02:41;;;;;;;14.32;13.23;;;19.60;70.90;;;;;;5055998;29;20055;-74
2021/08/08 12:05:13;;;;;;;15.18;13.88;;;19.60;69.80;;;;;;5055787;29;20044;-74
2021/08/08 12:07:48;;;;;;;15.40;14.02;;;19.60;68.60;;;;;;5043128;29;20488;-76
2021/08/08 12:10:28;;;;;;;14.57;13.38;;;19.60;70.00;;;;;;5059400;29;20455;-77
2021/08/08 12:13:13;;;;;;;14.63;13.63;;;19.60;69.70;;;;;;5061873;29;20060;-77
2021/08/08 12:15:45;;;;;;;14.95;13.77;;;19.60;67.80;;;;;;5041429;29;20044;-78
2021/08/08 12:18:30;;;;;;;14.05;12.93;;;19.60;68.70;;;;;;5059069;29;20133;-78
2021/08/08 12:21:13;;;;;;;14.18;13.18;;;19.70;68.00;;;;;;5052953;29;20074;-79
2021/08/08 12:23:44;;;;;;;13.68;12.77;;;19.70;68.00;;;;;;5056457;29;20044;-79
2021/08/08 12:26:25;;;;;;;14.07;13.07;;;19.80;68.40;;;;;;5058783;29;20048;-78
2021/08/08 12:29:02;;;;;;;13.80;12.80;;;19.80;66.10;;;;;;5053665;29;20051;-76
2021/08/08 12:31:39;;;;;;;13.93;12.93;;;19.70;67.50;;;;;;5056009;29;20128;-82
2021/08/08 12:34:11;;;;;;;14.13;13.02;;;19.80;67.30;;;;;;5053504;29;20040;-80
2021/08/08 12:36:43;;;;;;;13.38;12.38;;;19.70;67.90;;;;;;5056231;29;20096;-76
2021/08/08 12:39:26;;;;;;;13.57;12.57;;;19.70;67.50;;;;;;5057883;29;20055;-74
2021/08/08 12:41:58;;;;;;;13.93;12.93;;;19.60;67.70;;;;;;5053269;29;20111;-74
2021/08/08 12:44:37;;;;;;;13.18;12.15;;;19.50;68.30;;;;;;5052757;29;20709;-75
2021/08/08 12:47:10;;;;;;;13.73;12.32;;;19.50;68.20;;;;;;5039811;29;20055;-76
2021/08/08 12:49:42;;;;;;;12.55;11.63;;;19.40;68.20;;;;;;5055429;29;20044;-73
2021/08/08 12:52:15;;;;;;;13.50;12.50;;;19.20;67.80;;;;;;5057646;29;20447;-76
2021/08/08 12:54:47;;;;;;;13.27;12.18;;;19.10;67.80;;;;;;5055854;29;20435;-75
2021/08/08 12:57:19;;;;;;;12.85;11.95;;;19.00;66.80;;;;;;5055643;29;20040;-76
2021/08/08 12:59:51;;;;;;;13.00;11.98;;;18.80;68.70;;;;;;5059457;29;20104;-74
2021/08/08 13:02:22;;;;;;;13.35;12.23;;;18.80;68.40;;;;;;5057502;29;20068;-74
2021/08/08 13:04:55;;;;;;;12.77;11.68;;;18.70;68.10;;;;;;5053233;29;20045;-74